createdAt,value
2022-11-29T00:01:18.556Z,2.70
2022-11-29T00:06:27.493Z,2.70
2022-11-29T00:08:56.271Z,2.70
2022-11-29T00:11:47.611Z,2.70
2022-11-29T00:14:17.339Z,2.50
2022-11-29T00:19:13.107Z,2.60
2022-11-29T00:21:40.053Z,2.60
2022-11-29T00:24:07.387Z,2.70
2022-11-29T00:29:01.655Z,2.70
2022-11-29T00:31:31.611Z,2.70
2022-11-29T00:34:00.128Z,2.70
2022-11-29T00:36:28.045Z,2.70
2022-11-29T00:38:55.163Z,2.60
2022-11-29T00:41:22.108Z,2.70
2022-11-29T00:43:49.015Z,2.70
2022-11-29T00:46:16.039Z,2.60
2022-11-29T00:48:42.897Z,2.60
2022-11-29T00:51:10.306Z,2.60
2022-11-29T00:53:38.053Z,2.60
2022-11-29T00:56:06.184Z,2.60
2022-11-29T00:58:33.391Z,2.60
2022-11-29T01:01:00.409Z,2.60
2022-11-29T01:03:27.571Z,2.60
2022-11-29T01:06:05.635Z,2.50
2022-11-29T01:08:32.875Z,2.50
2022-11-29T01:11:17.008Z,2.50
2022-11-29T01:16:13.016Z,2.50
2022-11-29T01:21:10.595Z,2.50
2022-11-29T01:23:38.277Z,2.50
2022-11-29T01:26:29.041Z,2.50
2022-11-29T01:28:57.646Z,2.50
2022-11-29T01:31:30.581Z,2.50
2022-11-29T01:34:00.315Z,2.50
2022-11-29T01:36:27.647Z,2.50
2022-11-29T01:38:54.600Z,2.40
2022-11-29T01:41:24.593Z,2.50
2022-11-29T01:44:03.823Z,2.50
2022-11-29T01:46:45.180Z,2.50
2022-11-29T01:49:20.756Z,2.50
2022-11-29T01:52:02.809Z,2.50
2022-11-29T01:54:31.849Z,2.50
2022-11-29T01:56:59.532Z,2.50
2022-11-29T01:59:29.480Z,2.50
2022-11-29T02:02:18.452Z,2.50
2022-11-29T02:07:14.897Z,2.50
2022-11-29T02:09:42.113Z,2.50
2022-11-29T02:12:29.922Z,2.50
2022-11-29T02:15:18.381Z,2.50
2022-11-29T02:18:15.572Z,2.50
2022-11-29T02:21:12.263Z,2.50
2022-11-29T02:24:02.132Z,2.50
2022-11-29T02:26:34.978Z,2.50
2022-11-29T02:29:39.271Z,2.50
2022-11-29T02:32:56.773Z,2.50
2022-11-29T02:35:58.000Z,2.40
2022-11-29T02:41:05.311Z,2.50
2022-11-29T02:43:46.576Z,2.50
2022-11-29T02:46:16.472Z,2.50
2022-11-29T02:48:55.950Z,2.50
2022-11-29T02:51:27.950Z,2.40
2022-11-29T02:54:23.998Z,2.50
2022-11-29T02:57:05.141Z,2.50
2022-11-29T02:59:37.714Z,2.50
2022-11-29T03:02:28.731Z,2.50
2022-11-29T03:05:17.491Z,2.40
2022-11-29T03:08:05.579Z,2.40
2022-11-29T03:11:06.705Z,2.40
2022-11-29T03:14:08.162Z,2.20
2022-11-29T03:17:05.311Z,2.30
2022-11-29T03:20:03.867Z,2.40
2022-11-29T03:22:39.622Z,2.40
2022-11-29T03:25:08.944Z,2.30
2022-11-29T03:27:39.060Z,2.30
2022-11-29T03:30:09.167Z,2.30
2022-11-29T03:32:49.335Z,2.30
2022-11-29T03:35:30.131Z,2.30
2022-11-29T03:38:12.067Z,2.30
2022-11-29T03:40:42.435Z,2.30
2022-11-29T03:43:22.398Z,2.30
2022-11-29T03:45:55.988Z,2.30
2022-11-29T03:48:31.464Z,2.20
2022-11-29T03:51:13.313Z,2.20
2022-11-29T03:54:01.928Z,2.20
2022-11-29T03:56:38.081Z,2.20
2022-11-29T03:59:42.607Z,2.20
2022-11-29T04:02:48.710Z,2.20
2022-11-29T04:07:54.954Z,2.20
2022-11-29T04:10:51.188Z,2.20
2022-11-29T04:13:50.123Z,2.20
2022-11-29T04:16:48.057Z,2.20
2022-11-29T04:19:33.054Z,2.20
2022-11-29T04:22:30.151Z,2.10
2022-11-29T04:25:20.028Z,2.10
2022-11-29T04:28:05.487Z,2.10
2022-11-29T04:30:53.262Z,2.10
2022-11-29T04:33:45.020Z,2.10
2022-11-29T04:36:55.694Z,2.10
2022-11-29T04:39:37.108Z,2.10
2022-11-29T04:42:30.135Z,2.00
2022-11-29T04:45:21.749Z,2.00
2022-11-29T04:48:44.238Z,1.90
2022-11-29T04:51:45.222Z,2.00
2022-11-29T04:54:47.770Z,2.00
2022-11-29T04:57:30.865Z,2.00
2022-11-29T05:00:11.975Z,2.00
2022-11-29T05:02:54.205Z,1.90
2022-11-29T05:05:33.209Z,2.00
2022-11-29T05:08:35.088Z,1.90
2022-11-29T05:11:35.076Z,1.90
2022-11-29T05:14:24.719Z,2.00
2022-11-29T05:17:36.846Z,1.90
2022-11-29T05:20:21.784Z,2.10
2022-11-29T05:23:16.370Z,2.10
2022-11-29T05:26:12.561Z,2.00
2022-11-29T05:29:02.787Z,2.00
2022-11-29T05:34:38.104Z,1.90
2022-11-29T05:37:10.999Z,1.90
2022-11-29T05:39:53.465Z,1.90
2022-11-29T05:42:38.958Z,1.90
2022-11-29T05:45:28.591Z,1.90
2022-11-29T05:48:17.751Z,1.90
2022-11-29T05:51:22.213Z,1.90
2022-11-29T05:54:24.468Z,1.80
2022-11-29T05:57:06.283Z,1.80
2022-11-29T05:59:36.770Z,1.80
2022-11-29T06:02:15.366Z,1.80
2022-11-29T06:04:57.342Z,1.80
2022-11-29T06:07:45.052Z,1.70
2022-11-29T06:10:22.050Z,1.80
2022-11-29T06:13:11.885Z,1.70
2022-11-29T06:15:57.051Z,1.70
2022-11-29T06:18:48.603Z,1.70
2022-11-29T06:21:40.260Z,1.70
2022-11-29T06:24:28.103Z,1.80
2022-11-29T06:27:25.505Z,1.70
2022-11-29T06:30:04.795Z,1.70
2022-11-29T06:32:54.522Z,1.60
2022-11-29T06:35:45.897Z,1.70
2022-11-29T06:38:37.054Z,1.60
2022-11-29T06:41:04.451Z,1.60
2022-11-29T06:43:31.660Z,1.60
2022-11-29T06:46:10.083Z,1.60
2022-11-29T06:48:49.265Z,1.60
2022-11-29T06:51:44.340Z,1.60
2022-11-29T06:54:34.506Z,1.60
2022-11-29T06:57:22.905Z,1.60
2022-11-29T06:59:58.308Z,1.60
2022-11-29T07:02:44.190Z,1.60
2022-11-29T07:05:36.432Z,1.60
2022-11-29T07:14:18.583Z,1.60
2022-11-29T07:20:48.217Z,1.60
2022-11-29T07:23:23.981Z,1.60
2022-11-29T07:26:09.746Z,1.50
2022-11-29T07:28:54.349Z,1.50
2022-11-29T07:31:26.960Z,1.60
2022-11-29T07:34:31.788Z,1.60
2022-11-29T07:37:07.480Z,1.60
2022-11-29T07:39:49.383Z,1.60
2022-11-29T07:42:21.239Z,1.60
2022-11-29T07:44:51.303Z,1.60
2022-11-29T07:47:18.262Z,1.60
2022-11-29T07:49:45.141Z,1.60
2022-11-29T07:52:14.356Z,1.50
2022-11-29T07:54:41.395Z,1.60
2022-11-29T07:57:08.594Z,1.60
2022-11-29T07:59:35.439Z,1.60
2022-11-29T08:02:04.692Z,1.60
2022-11-29T08:04:40.278Z,1.60
2022-11-29T08:07:07.171Z,1.70
2022-11-29T08:09:34.052Z,1.80
2022-11-29T08:12:00.946Z,1.80
2022-11-29T08:14:32.511Z,1.80
2022-11-29T08:16:59.421Z,1.90
2022-11-29T08:19:26.385Z,2.00
2022-11-29T08:21:53.961Z,1.90
2022-11-29T08:24:20.972Z,2.00
2022-11-29T08:26:48.158Z,1.90
2022-11-29T08:29:15.856Z,2.00
2022-11-29T08:31:42.822Z,2.00
2022-11-29T08:34:10.936Z,2.00
2022-11-29T08:36:37.843Z,2.00
2022-11-29T08:39:09.354Z,1.90
2022-11-29T08:41:36.715Z,1.90
2022-11-29T08:44:05.977Z,1.90
2022-11-29T08:46:58.994Z,2.00
2022-11-29T08:49:25.886Z,2.00
2022-11-29T08:52:13.043Z,1.90
2022-11-29T08:59:54.386Z,2.00
2022-11-29T09:02:21.623Z,1.90
2022-11-29T09:07:16.686Z,2.10
2022-11-29T09:09:43.546Z,2.10
2022-11-29T09:12:10.408Z,2.00
2022-11-29T09:17:04.548Z,2.10
2022-11-29T09:19:31.453Z,2.20
2022-11-29T09:21:58.301Z,2.10
2022-11-29T09:24:25.116Z,2.20
2022-11-29T09:26:52.021Z,2.30
2022-11-29T09:31:46.428Z,2.40
2022-11-29T09:34:14.884Z,2.30
2022-11-29T09:36:44.198Z,2.40
2022-11-29T09:39:12.555Z,2.50
2022-11-29T09:42:07.772Z,2.30
2022-11-29T09:44:37.687Z,2.30
2022-11-29T09:47:28.382Z,2.10
2022-11-29T09:50:10.082Z,2.00
2022-11-29T09:52:48.491Z,2.00
2022-11-29T09:55:28.945Z,2.00
2022-11-29T09:57:58.618Z,2.00
2022-11-29T10:00:26.227Z,2.00
2022-11-29T10:02:59.552Z,2.00
2022-11-29T10:08:09.892Z,2.00
2022-11-29T10:10:43.325Z,2.00
2022-11-29T10:13:25.252Z,2.10
2022-11-29T10:15:55.471Z,2.10
2022-11-29T10:18:48.008Z,2.20
2022-11-29T10:21:19.924Z,2.10
2022-11-29T10:23:57.218Z,2.10
2022-11-29T10:26:27.344Z,2.20
2022-11-29T10:28:58.121Z,2.20
2022-11-29T10:31:29.308Z,2.20
2022-11-29T10:33:58.413Z,2.20
2022-11-29T10:36:33.454Z,2.20
2022-11-29T10:39:10.067Z,2.20
2022-11-29T10:41:41.202Z,2.20
2022-11-29T10:44:13.899Z,2.20
2022-11-29T10:46:41.347Z,2.20
2022-11-29T10:49:17.706Z,2.20
2022-11-29T10:51:46.563Z,2.20
2022-11-29T10:54:28.151Z,2.20
2022-11-29T11:00:50.798Z,2.30
2022-11-29T11:11:30.764Z,2.30
2022-11-29T11:14:06.639Z,2.30
2022-11-29T11:20:23.932Z,2.30
2022-11-29T11:23:02.191Z,2.30
2022-11-29T11:25:34.689Z,2.20
2022-11-29T11:28:21.026Z,2.30
2022-11-29T11:30:54.797Z,2.30
2022-11-29T11:33:29.175Z,2.30
2022-11-29T11:36:17.208Z,2.30
2022-11-29T11:39:11.690Z,2.30
2022-11-29T11:42:01.604Z,2.30
2022-11-29T11:44:48.442Z,2.30
2022-11-29T11:47:24.404Z,2.30
2022-11-29T11:50:04.171Z,2.20
2022-11-29T11:52:41.283Z,2.30
2022-11-29T11:55:33.517Z,2.40
2022-11-29T12:04:33.928Z,2.30
2022-11-29T12:07:33.943Z,2.30
2022-11-29T12:10:22.525Z,2.30
2022-11-29T12:12:50.726Z,2.30
2022-11-29T12:15:19.753Z,2.30
2022-11-29T12:17:46.614Z,2.20
2022-11-29T12:20:13.448Z,2.30
2022-11-29T12:26:49.057Z,2.30
2022-11-29T12:29:15.417Z,2.30
2022-11-29T12:31:55.383Z,2.30
2022-11-29T12:34:43.207Z,2.30
2022-11-29T12:37:27.142Z,2.30
2022-11-29T12:40:13.628Z,2.30
2022-11-29T12:43:11.043Z,2.30
2022-11-29T12:45:52.915Z,2.30
2022-11-29T12:48:37.533Z,2.30
2022-11-29T12:54:07.214Z,2.30
2022-11-29T12:56:58.636Z,2.30
2022-11-29T12:59:45.120Z,2.30
2022-11-29T13:02:34.760Z,2.30
2022-11-29T13:05:14.705Z,2.30
2022-11-29T13:07:57.354Z,2.30
2022-11-29T13:10:27.258Z,2.20
2022-11-29T13:13:19.226Z,2.30
2022-11-29T13:19:39.124Z,2.30
2022-11-29T13:22:18.739Z,2.20
2022-11-29T13:24:52.392Z,2.20
2022-11-29T13:27:27.328Z,2.20
2022-11-29T13:29:54.585Z,2.20
2022-11-29T13:32:53.773Z,2.40
2022-11-29T13:35:24.690Z,2.20
2022-11-29T13:40:32.085Z,0.30
2022-11-29T13:43:33.272Z,2.10
2022-11-29T13:46:04.206Z,2.20
2022-11-29T13:48:51.932Z,2.10
2022-11-29T13:51:24.832Z,2.10
2022-11-29T13:53:52.965Z,2.10
2022-11-29T13:56:48.029Z,2.10
2022-11-29T13:59:48.642Z,2.10
2022-11-29T14:02:29.804Z,2.10
2022-11-29T14:04:56.962Z,2.10
2022-11-29T14:10:07.088Z,2.10
2022-11-29T14:12:54.681Z,2.10
2022-11-29T14:15:28.411Z,2.10
2022-11-29T14:20:25.932Z,1.90
2022-11-29T14:23:05.182Z,2.00
2022-11-29T14:25:51.567Z,2.00
2022-11-29T14:28:21.486Z,2.00
2022-11-29T14:30:53.121Z,2.00
2022-11-29T14:33:47.135Z,2.00
2022-11-29T14:36:23.068Z,2.00
2022-11-29T14:39:03.292Z,2.00
2022-11-29T14:42:10.664Z,2.00
2022-11-29T14:44:45.562Z,2.00
2022-11-29T14:47:24.905Z,2.00
2022-11-29T14:49:55.565Z,1.90
2022-11-29T14:52:22.412Z,2.00
2022-11-29T14:54:58.705Z,2.00
2022-11-29T14:57:47.521Z,1.90
2022-11-29T15:00:21.259Z,2.00
2022-11-29T15:02:59.206Z,1.90
2022-11-29T15:05:38.204Z,2.00
2022-11-29T15:08:29.434Z,2.00
2022-11-29T15:11:01.819Z,2.00
2022-11-29T15:13:34.582Z,1.90
2022-11-29T15:16:13.361Z,1.90
2022-11-29T15:18:51.669Z,2.00
2022-11-29T15:21:39.524Z,1.90
2022-11-29T15:24:13.084Z,2.00
2022-11-29T15:26:55.591Z,1.90
2022-11-29T15:29:23.180Z,1.90
2022-11-29T15:31:56.893Z,1.90
2022-11-29T15:34:39.804Z,1.90
2022-11-29T15:37:06.941Z,1.90
2022-11-29T15:39:36.657Z,1.90
2022-11-29T15:42:12.617Z,1.90
2022-11-29T15:44:48.930Z,1.80
2022-11-29T15:47:26.566Z,1.80
2022-11-29T15:49:54.391Z,1.80
2022-11-29T15:52:31.705Z,1.80
2022-11-29T16:01:07.944Z,1.80
2022-11-29T16:07:24.233Z,1.80
2022-11-29T16:09:56.949Z,1.80
2022-11-29T16:14:58.434Z,1.80
2022-11-29T16:23:41.447Z,1.70
2022-11-29T16:26:27.036Z,1.70
2022-11-29T16:28:56.470Z,1.70
2022-11-29T16:31:30.718Z,1.70
2022-11-29T16:36:28.058Z,1.60
2022-11-29T16:39:05.923Z,1.70
2022-11-29T16:41:38.446Z,1.70
2022-11-29T16:44:07.384Z,1.60
2022-11-29T16:46:37.277Z,1.60
2022-11-29T16:49:31.741Z,1.70
2022-11-29T16:54:28.509Z,1.70
2022-11-29T16:56:57.292Z,1.70
2022-11-29T16:59:28.289Z,1.70
2022-11-29T17:01:56.779Z,1.70
2022-11-29T17:04:25.155Z,1.70
2022-11-29T17:06:56.465Z,1.70
2022-11-29T17:09:29.737Z,1.70
2022-11-29T17:11:59.868Z,1.70
2022-11-29T17:14:31.255Z,1.70
2022-11-29T17:17:00.938Z,1.60
2022-11-29T17:19:29.397Z,1.60
2022-11-29T17:21:56.386Z,1.60
2022-11-29T17:24:24.628Z,1.60
2022-11-29T17:26:51.613Z,1.60
2022-11-29T17:29:18.819Z,1.60
2022-11-29T17:31:47.133Z,1.60
2022-11-29T17:34:14.144Z,1.60
2022-11-29T17:36:41.284Z,1.60
2022-11-29T17:39:08.672Z,1.60
2022-11-29T17:44:03.191Z,1.60
2022-11-29T17:46:32.584Z,1.60
2022-11-29T17:49:01.343Z,1.50
2022-11-29T17:51:51.068Z,1.60
2022-11-29T17:54:15.209Z,1.60
2022-11-29T17:56:42.121Z,1.60
2022-11-29T17:59:09.021Z,1.60
2022-11-29T18:01:36.942Z,1.60
2022-11-29T18:04:05.832Z,1.50
2022-11-29T18:06:40.533Z,1.60
2022-11-29T18:09:09.655Z,1.60
2022-11-29T18:11:47.022Z,2.60
2022-11-29T18:14:17.111Z,1.50
2022-11-29T18:16:45.663Z,1.50
2022-11-29T18:19:15.326Z,1.60
2022-11-29T18:24:10.334Z,1.50
2022-11-29T18:26:38.339Z,1.50
2022-11-29T18:29:06.473Z,1.50
2022-11-29T18:31:35.978Z,1.50
2022-11-29T18:34:09.935Z,1.50
2022-11-29T18:36:45.783Z,1.50
2022-11-29T18:39:18.478Z,1.50
2022-11-29T18:41:47.883Z,1.50
2022-11-29T18:44:16.550Z,1.90
2022-11-29T18:46:44.986Z,1.50
2022-11-29T18:52:59.566Z,1.40
2022-11-29T18:55:26.878Z,1.40
2022-11-29T18:57:54.009Z,1.50
2022-11-29T19:00:21.351Z,1.50
2022-11-29T19:02:48.288Z,1.40
2022-11-29T19:07:42.685Z,1.40
2022-11-29T19:10:09.926Z,1.40
2022-11-29T19:12:36.790Z,1.40
2022-11-29T19:15:03.936Z,1.40
2022-11-29T19:17:30.865Z,1.40
2022-11-29T19:19:58.419Z,1.40
2022-11-29T19:22:25.273Z,1.40
2022-11-29T19:24:52.166Z,1.40
2022-11-29T19:27:19.629Z,1.30
2022-11-29T19:29:46.609Z,1.30
2022-11-29T19:32:13.622Z,1.30
2022-11-29T19:34:40.730Z,1.30
2022-11-29T19:37:09.469Z,1.30
2022-11-29T19:39:36.276Z,1.30
2022-11-29T19:42:03.208Z,1.20
2022-11-29T19:44:31.430Z,1.20
2022-11-29T19:47:03.075Z,1.20
2022-11-29T19:49:30.196Z,1.20
2022-11-29T19:51:57.100Z,1.20
2022-11-29T19:54:24.111Z,1.20
2022-11-29T19:56:50.969Z,1.20
2022-11-29T19:59:18.686Z,1.10
2022-11-29T20:04:14.211Z,1.10
2022-11-29T20:09:09.781Z,1.10
2022-11-29T20:11:36.884Z,1.10
2022-11-29T20:14:05.793Z,1.10
2022-11-29T20:16:33.041Z,1.20
2022-11-29T20:18:59.976Z,1.20
2022-11-29T20:21:32.301Z,1.20
2022-11-29T20:24:04.941Z,1.10
2022-11-29T20:26:34.585Z,1.10
2022-11-29T20:29:02.337Z,1.10
2022-11-29T20:31:32.145Z,1.20
2022-11-29T20:33:59.296Z,1.20
2022-11-29T20:36:45.211Z,1.10
2022-11-29T20:39:35.148Z,1.10
2022-11-29T20:42:26.484Z,1.10
2022-11-29T20:45:01.621Z,1.10
2022-11-29T20:47:40.519Z,1.20
2022-11-29T20:50:08.224Z,1.20
2022-11-29T20:53:13.637Z,1.20
2022-11-29T21:00:42.313Z,1.10
2022-11-29T21:03:12.434Z,1.10
2022-11-29T21:05:39.424Z,1.20
2022-11-29T21:10:34.457Z,1.10
2022-11-29T21:13:01.995Z,1.10
2022-11-29T21:15:29.309Z,1.10
2022-11-29T21:17:56.807Z,1.10
2022-11-29T21:20:26.223Z,1.10
2022-11-29T21:23:07.153Z,1.20
2022-11-29T21:25:42.967Z,1.20
2022-11-29T21:28:13.377Z,1.20
2022-11-29T21:30:41.015Z,1.20
2022-11-29T21:33:08.459Z,1.20
2022-11-29T21:35:39.719Z,1.20
2022-11-29T21:38:11.028Z,1.20
2022-11-29T21:40:37.890Z,3.00
2022-11-29T21:43:04.750Z,1.20
2022-11-29T21:45:31.667Z,1.20
2022-11-29T21:48:00.694Z,1.10
2022-11-29T21:50:27.708Z,1.20
2022-11-29T21:52:54.750Z,1.10
2022-11-29T21:55:21.666Z,1.20
2022-11-29T21:57:48.519Z,1.20
2022-11-29T22:00:15.800Z,1.20
2022-11-29T22:02:42.727Z,1.20
2022-11-29T22:05:09.879Z,1.20
2022-11-29T22:07:36.786Z,1.20
2022-11-29T22:10:11.623Z,1.30
2022-11-29T22:12:49.335Z,1.20
2022-11-29T22:15:24.140Z,1.20
2022-11-29T22:17:51.664Z,1.20
2022-11-29T22:20:18.485Z,1.30
2022-11-29T22:22:47.716Z,1.20
2022-11-29T22:25:15.544Z,1.20
2022-11-29T22:27:42.412Z,1.20
2022-11-29T22:30:09.656Z,1.20
2022-11-29T22:32:36.503Z,1.20
2022-11-29T22:37:30.598Z,1.20
2022-11-29T22:39:57.819Z,1.20
2022-11-29T22:42:24.907Z,1.20
2022-11-29T22:47:19.164Z,1.20
2022-11-29T22:49:45.960Z,1.20
2022-11-29T22:52:12.819Z,1.20
2022-11-29T22:54:39.705Z,1.20
2022-11-29T22:57:06.529Z,1.20
2022-11-29T22:59:33.412Z,1.30
2022-11-29T23:02:00.302Z,1.20
2022-11-29T23:04:27.182Z,1.30
2022-11-29T23:06:53.979Z,1.30
2022-11-29T23:09:22.528Z,1.30
2022-11-29T23:11:55.932Z,1.30
2022-11-29T23:14:24.264Z,1.30
2022-11-29T23:16:52.063Z,1.30
2022-11-29T23:19:19.120Z,1.30
2022-11-29T23:24:15.005Z,1.30
2022-11-29T23:26:45.061Z,1.30
2022-11-29T23:29:19.520Z,1.30
2022-11-29T23:31:46.937Z,1.30
2022-11-29T23:34:13.983Z,1.30
2022-11-29T23:36:40.890Z,1.30
2022-11-29T23:39:07.923Z,1.30
2022-11-29T23:41:36.424Z,1.30
2022-11-29T23:44:06.849Z,1.30
2022-11-29T23:46:35.518Z,1.30
2022-11-29T23:49:02.476Z,1.30
2022-11-29T23:51:29.391Z,1.30
2022-11-29T23:53:56.352Z,1.40
2022-11-29T23:56:23.552Z,1.40
2022-11-29T23:58:50.581Z,1.30
